sensor_id;sensor_type;location;lat;lon;timestamp;temperature;humidity
14103;DHT22;7129;48.832;12.472;2022-10-31T00:02:03;12.40;99.90
14103;DHT22;7129;48.832;12.472;2022-10-31T00:07:07;12.30;99.90
14103;DHT22;7129;48.832;12.472;2022-10-31T00:12:08;12.20;99.90
14103;DHT22;7129;48.832;12.472;2022-10-31T00:17:10;12.10;99.90
14103;DHT22;7129;48.832;12.472;2022-10-31T00:22:14;12.00;99.90
14103;DHT22;7129;48.832;12.472;2022-10-31T00:27:16;11.90;99.90
14103;DHT22;7129;48.832;12.472;2022-10-31T00:32:19;11.70;99.90
14103;DHT22;7129;48.832;12.472;2022-10-31T00:37:23;11.70;99.90
14103;DHT22;7129;48.832;12.472;2022-10-31T00:42:25;11.50;99.90
14103;DHT22;7129;48.832;12.472;2022-10-31T00:47:27;11.70;99.90
14103;DHT22;7129;48.832;12.472;2022-10-31T00:52:31;11.50;99.90
14103;DHT22;7129;48.832;12.472;2022-10-31T00:57:32;11.50;99.90
14103;DHT22;7129;48.832;12.472;2022-10-31T01:02:34;11.40;99.90
14103;DHT22;7129;48.832;12.472;2022-10-31T01:07:40;11.30;99.90
14103;DHT22;7129;48.832;12.472;2022-10-31T01:12:44;11.40;99.90
14103;DHT22;7129;48.832;12.472;2022-10-31T01:17:46;11.50;99.90
14103;DHT22;7129;48.832;12.472;2022-10-31T01:22:50;11.20;99.90
14103;DHT22;7129;48.832;12.472;2022-10-31T01:27:52;11.10;99.90
14103;DHT22;7129;48.832;12.472;2022-10-31T01:32:53;11.10;99.90
14103;DHT22;7129;48.832;12.472;2022-10-31T01:37:57;11.20;99.90
14103;DHT22;7129;48.832;12.472;2022-10-31T01:42:59;11.10;99.90
14103;DHT22;7129;48.832;12.472;2022-10-31T01:48:01;11.10;99.90
14103;DHT22;7129;48.832;12.472;2022-10-31T01:53:05;11.00;99.90
14103;DHT22;7129;48.832;12.472;2022-10-31T01:58:13;10.90;99.90
14103;DHT22;7129;48.832;12.472;2022-10-31T02:03:16;10.90;99.90
14103;DHT22;7129;48.832;12.472;2022-10-31T02:08:23;10.90;99.90
14103;DHT22;7129;48.832;12.472;2022-10-31T02:13:28;10.90;99.90
14103;DHT22;7129;48.832;12.472;2022-10-31T02:18:30;10.80;99.90
14103;DHT22;7129;48.832;12.472;2022-10-31T02:24:00;10.80;99.90
14103;DHT22;7129;48.832;12.472;2022-10-31T02:29:29;10.90;99.90
14103;DHT22;7129;48.832;12.472;2022-10-31T02:34:45;10.90;99.90
14103;DHT22;7129;48.832;12.472;2022-10-31T02:39:56;11.00;99.90
14103;DHT22;7129;48.832;12.472;2022-10-31T02:45:06;11.00;99.90
14103;DHT22;7129;48.832;12.472;2022-10-31T02:50:13;10.80;99.90
14103;DHT22;7129;48.832;12.472;2022-10-31T03:01:26;10.90;99.90
14103;DHT22;7129;48.832;12.472;2022-10-31T03:06:35;11.00;99.90
14103;DHT22;7129;48.832;12.472;2022-10-31T03:11:44;11.00;99.90
14103;DHT22;7129;48.832;12.472;2022-10-31T03:16:50;11.00;99.90
14103;DHT22;7129;48.832;12.472;2022-10-31T03:21:57;11.00;99.90
14103;DHT22;7129;48.832;12.472;2022-10-31T03:27:00;11.20;99.90
14103;DHT22;7129;48.832;12.472;2022-10-31T03:32:06;11.10;99.90
14103;DHT22;7129;48.832;12.472;2022-10-31T03:37:15;11.00;99.90
14103;DHT22;7129;48.832;12.472;2022-10-31T03:42:21;11.10;99.90
14103;DHT22;7129;48.832;12.472;2022-10-31T03:47:24;11.20;99.90
14103;DHT22;7129;48.832;12.472;2022-10-31T03:52:32;11.20;99.90
14103;DHT22;7129;48.832;12.472;2022-10-31T03:57:38;11.40;99.90
14103;DHT22;7129;48.832;12.472;2022-10-31T04:02:45;11.30;99.90
14103;DHT22;7129;48.832;12.472;2022-10-31T04:07:52;11.30;99.90
14103;DHT22;7129;48.832;12.472;2022-10-31T04:13:00;11.30;99.90
14103;DHT22;7129;48.832;12.472;2022-10-31T04:18:05;11.30;99.90
14103;DHT22;7129;48.832;12.472;2022-10-31T04:23:16;11.30;99.90
14103;DHT22;7129;48.832;12.472;2022-10-31T04:28:19;11.30;99.90
14103;DHT22;7129;48.832;12.472;2022-10-31T04:33:21;11.20;99.90
14103;DHT22;7129;48.832;12.472;2022-10-31T04:38:24;11.20;99.90
14103;DHT22;7129;48.832;12.472;2022-10-31T04:43:26;11.10;99.90
14103;DHT22;7129;48.832;12.472;2022-10-31T04:48:28;11.10;99.90
14103;DHT22;7129;48.832;12.472;2022-10-31T04:53:31;11.00;99.90
14103;DHT22;7129;48.832;12.472;2022-10-31T04:58:33;10.80;99.90
14103;DHT22;7129;48.832;12.472;2022-10-31T05:03:35;10.80;99.90
14103;DHT22;7129;48.832;12.472;2022-10-31T05:08:41;10.80;99.90
14103;DHT22;7129;48.832;12.472;2022-10-31T05:13:42;10.70;99.90
14103;DHT22;7129;48.832;12.472;2022-10-31T05:18:44;10.70;99.90
14103;DHT22;7129;48.832;12.472;2022-10-31T05:23:48;10.60;99.90
14103;DHT22;7129;48.832;12.472;2022-10-31T05:28:50;10.60;99.90
14103;DHT22;7129;48.832;12.472;2022-10-31T05:33:52;10.60;99.90
14103;DHT22;7129;48.832;12.472;2022-10-31T05:38:56;10.60;99.90
14103;DHT22;7129;48.832;12.472;2022-10-31T05:43:58;10.70;99.90
14103;DHT22;7129;48.832;12.472;2022-10-31T05:49:00;10.50;99.90
14103;DHT22;7129;48.832;12.472;2022-10-31T05:54:03;10.70;99.90
14103;DHT22;7129;48.832;12.472;2022-10-31T05:59:05;10.60;99.90
14103;DHT22;7129;48.832;12.472;2022-10-31T06:04:07;10.60;99.90
14103;DHT22;7129;48.832;12.472;2022-10-31T06:15:00;10.80;99.90
14103;DHT22;7129;48.832;12.472;2022-10-31T06:20:02;10.60;99.90
14103;DHT22;7129;48.832;12.472;2022-10-31T06:25:05;10.60;99.90
14103;DHT22;7129;48.832;12.472;2022-10-31T06:30:09;10.70;99.90
14103;DHT22;7129;48.832;12.472;2022-10-31T06:35:12;10.60;99.90
14103;DHT22;7129;48.832;12.472;2022-10-31T06:40:14;10.60;99.90
14103;DHT22;7129;48.832;12.472;2022-10-31T06:45:17;10.60;99.90
14103;DHT22;7129;48.832;12.472;2022-10-31T06:50:20;10.70;99.90
14103;DHT22;7129;48.832;12.472;2022-10-31T06:55:23;10.50;99.90
14103;DHT22;7129;48.832;12.472;2022-10-31T07:00:29;10.60;99.90
14103;DHT22;7129;48.832;12.472;2022-10-31T07:05:31;10.60;99.90
14103;DHT22;7129;48.832;12.472;2022-10-31T07:10:35;10.50;99.90
14103;DHT22;7129;48.832;12.472;2022-10-31T07:15:41;10.40;99.90
14103;DHT22;7129;48.832;12.472;2022-10-31T07:20:43;10.60;99.90
14103;DHT22;7129;48.832;12.472;2022-10-31T07:25:45;10.50;99.90
14103;DHT22;7129;48.832;12.472;2022-10-31T07:30:51;10.50;99.90
14103;DHT22;7129;48.832;12.472;2022-10-31T07:35:54;10.60;99.90
14103;DHT22;7129;48.832;12.472;2022-10-31T07:41:00;10.60;99.90
14103;DHT22;7129;48.832;12.472;2022-10-31T07:46:04;10.60;99.90
14103;DHT22;7129;48.832;12.472;2022-10-31T07:51:06;10.70;99.90
14103;DHT22;7129;48.832;12.472;2022-10-31T07:56:11;10.70;99.90
14103;DHT22;7129;48.832;12.472;2022-10-31T08:01:14;10.80;99.90
14103;DHT22;7129;48.832;12.472;2022-10-31T08:11:34;10.70;99.90
14103;DHT22;7129;48.832;12.472;2022-10-31T08:16:38;10.80;99.90
14103;DHT22;7129;48.832;12.472;2022-10-31T08:21:40;10.90;99.90
14103;DHT22;7129;48.832;12.472;2022-10-31T08:26:41;10.80;99.90
14103;DHT22;7129;48.832;12.472;2022-10-31T08:31:47;10.90;99.90
14103;DHT22;7129;48.832;12.472;2022-10-31T08:36:49;11.10;99.90
14103;DHT22;7129;48.832;12.472;2022-10-31T08:41:50;11.10;99.90
14103;DHT22;7129;48.832;12.472;2022-10-31T08:46:54;10.90;99.90
14103;DHT22;7129;48.832;12.472;2022-10-31T08:51:56;11.00;99.90
14103;DHT22;7129;48.832;12.472;2022-10-31T08:56:58;11.10;99.90
14103;DHT22;7129;48.832;12.472;2022-10-31T09:02:01;11.10;99.90
14103;DHT22;7129;48.832;12.472;2022-10-31T09:07:03;11.20;99.90
14103;DHT22;7129;48.832;12.472;2022-10-31T09:12:05;11.20;99.90
14103;DHT22;7129;48.832;12.472;2022-10-31T09:17:10;11.20;99.90
14103;DHT22;7129;48.832;12.472;2022-10-31T09:22:12;11.30;99.90
14103;DHT22;7129;48.832;12.472;2022-10-31T09:27:14;11.30;99.90
14103;DHT22;7129;48.832;12.472;2022-10-31T09:32:20;11.40;99.90
14103;DHT22;7129;48.832;12.472;2022-10-31T09:37:22;11.50;99.90
14103;DHT22;7129;48.832;12.472;2022-10-31T09:42:39;11.50;99.90
14103;DHT22;7129;48.832;12.472;2022-10-31T09:47:56;11.60;99.90
14103;DHT22;7129;48.832;12.472;2022-10-31T09:53:02;11.70;99.90
14103;DHT22;7129;48.832;12.472;2022-10-31T09:58:05;11.50;99.90
14103;DHT22;7129;48.832;12.472;2022-10-31T10:03:20;11.60;99.90
14103;DHT22;7129;48.832;12.472;2022-10-31T10:08:27;11.70;99.90
14103;DHT22;7129;48.832;12.472;2022-10-31T10:13:59;11.80;99.90
14103;DHT22;7129;48.832;12.472;2022-10-31T10:19:16;11.90;99.90
14103;DHT22;7129;48.832;12.472;2022-10-31T10:24:30;11.90;99.90
14103;DHT22;7129;48.832;12.472;2022-10-31T10:29:40;12.00;99.90
14103;DHT22;7129;48.832;12.472;2022-10-31T10:34:47;12.10;99.90
14103;DHT22;7129;48.832;12.472;2022-10-31T10:39:53;12.30;99.90
14103;DHT22;7129;48.832;12.472;2022-10-31T10:44:56;12.40;99.90
14103;DHT22;7129;48.832;12.472;2022-10-31T10:50:20;12.40;99.90
14103;DHT22;7129;48.832;12.472;2022-10-31T10:55:29;12.50;99.90
14103;DHT22;7129;48.832;12.472;2022-10-31T11:00:35;12.50;99.90
14103;DHT22;7129;48.832;12.472;2022-10-31T11:05:41;12.60;99.90
14103;DHT22;7129;48.832;12.472;2022-10-31T11:10:55;12.70;99.90
14103;DHT22;7129;48.832;12.472;2022-10-31T11:15:59;12.70;99.90
14103;DHT22;7129;48.832;12.472;2022-10-31T11:21:03;12.80;99.90
14103;DHT22;7129;48.832;12.472;2022-10-31T11:26:19;12.90;99.90
14103;DHT22;7129;48.832;12.472;2022-10-31T11:31:21;12.90;99.90
14103;DHT22;7129;48.832;12.472;2022-10-31T11:36:26;13.10;99.90
14103;DHT22;7129;48.832;12.472;2022-10-31T11:41:31;13.10;99.90
14103;DHT22;7129;48.832;12.472;2022-10-31T11:46:35;13.20;99.90
14103;DHT22;7129;48.832;12.472;2022-10-31T11:51:56;13.10;99.90
14103;DHT22;7129;48.832;12.472;2022-10-31T11:56:59;13.20;99.90
14103;DHT22;7129;48.832;12.472;2022-10-31T12:02:02;13.10;99.90
14103;DHT22;7129;48.832;12.472;2022-10-31T12:07:05;13.20;99.90
14103;DHT22;7129;48.832;12.472;2022-10-31T12:12:23;13.20;99.90
14103;DHT22;7129;48.832;12.472;2022-10-31T12:17:31;13.30;99.90
14103;DHT22;7129;48.832;12.472;2022-10-31T12:22:48;13.50;99.90
14103;DHT22;7129;48.832;12.472;2022-10-31T12:28:08;13.50;99.90
14103;DHT22;7129;48.832;12.472;2022-10-31T12:33:25;13.50;99.90
14103;DHT22;7129;48.832;12.472;2022-10-31T12:38:54;13.60;99.90
14103;DHT22;7129;48.832;12.472;2022-10-31T12:44:04;13.60;99.90
14103;DHT22;7129;48.832;12.472;2022-10-31T12:54:53;13.50;99.90
14103;DHT22;7129;48.832;12.472;2022-10-31T13:00:00;13.50;99.90
14103;DHT22;7129;48.832;12.472;2022-10-31T13:05:06;13.50;99.90
14103;DHT22;7129;48.832;12.472;2022-10-31T13:10:19;13.50;99.90
14103;DHT22;7129;48.832;12.472;2022-10-31T13:15:24;13.50;99.90
14103;DHT22;7129;48.832;12.472;2022-10-31T13:20:29;13.50;99.90
14103;DHT22;7129;48.832;12.472;2022-10-31T13:25:38;13.40;99.90
14103;DHT22;7129;48.832;12.472;2022-10-31T13:30:42;13.40;99.90
14103;DHT22;7129;48.832;12.472;2022-10-31T13:35:50;13.40;99.90
14103;DHT22;7129;48.832;12.472;2022-10-31T13:40:56;13.30;99.90
14103;DHT22;7129;48.832;12.472;2022-10-31T13:45:59;13.30;99.90
14103;DHT22;7129;48.832;12.472;2022-10-31T13:51:02;13.40;99.90
14103;DHT22;7129;48.832;12.472;2022-10-31T13:56:20;13.40;99.90
14103;DHT22;7129;48.832;12.472;2022-10-31T14:01:22;13.50;99.90
14103;DHT22;7129;48.832;12.472;2022-10-31T14:06:38;13.50;99.90
14103;DHT22;7129;48.832;12.472;2022-10-31T14:11:45;13.50;99.90
14103;DHT22;7129;48.832;12.472;2022-10-31T14:16:55;13.50;99.90
14103;DHT22;7129;48.832;12.472;2022-10-31T14:21:57;13.50;99.90
14103;DHT22;7129;48.832;12.472;2022-10-31T14:27:02;13.50;99.90
14103;DHT22;7129;48.832;12.472;2022-10-31T14:32:06;13.70;99.90
14103;DHT22;7129;48.832;12.472;2022-10-31T14:43:25;13.60;99.90
14103;DHT22;7129;48.832;12.472;2022-10-31T14:54:00;13.60;99.90
14103;DHT22;7129;48.832;12.472;2022-10-31T14:59:08;13.60;99.90
14103;DHT22;7129;48.832;12.472;2022-10-31T15:04:14;13.60;99.90
14103;DHT22;7129;48.832;12.472;2022-10-31T15:09:22;13.50;99.90
14103;DHT22;7129;48.832;12.472;2022-10-31T15:14:27;13.50;99.90
14103;DHT22;7129;48.832;12.472;2022-10-31T15:19:32;13.50;99.90
14103;DHT22;7129;48.832;12.472;2022-10-31T15:24:36;13.50;99.90
14103;DHT22;7129;48.832;12.472;2022-10-31T15:29:48;13.40;99.90
14103;DHT22;7129;48.832;12.472;2022-10-31T15:34:52;13.50;99.90
14103;DHT22;7129;48.832;12.472;2022-10-31T15:40:05;13.50;99.90
14103;DHT22;7129;48.832;12.472;2022-10-31T15:45:17;13.40;99.90
14103;DHT22;7129;48.832;12.472;2022-10-31T15:50:22;13.50;99.90
14103;DHT22;7129;48.832;12.472;2022-10-31T15:55:26;13.40;99.90
14103;DHT22;7129;48.832;12.472;2022-10-31T16:00:31;13.40;99.90
14103;DHT22;7129;48.832;12.472;2022-10-31T16:05:36;13.30;99.90
14103;DHT22;7129;48.832;12.472;2022-10-31T16:10:38;13.30;99.90
14103;DHT22;7129;48.832;12.472;2022-10-31T16:15:48;13.20;99.90
14103;DHT22;7129;48.832;12.472;2022-10-31T16:20:53;13.20;99.90
14103;DHT22;7129;48.832;12.472;2022-10-31T16:25:56;13.10;99.90
14103;DHT22;7129;48.832;12.472;2022-10-31T16:30:59;13.10;99.90
14103;DHT22;7129;48.832;12.472;2022-10-31T16:36:31;13.10;99.90
14103;DHT22;7129;48.832;12.472;2022-10-31T16:41:35;12.90;99.90
14103;DHT22;7129;48.832;12.472;2022-10-31T16:46:39;12.80;99.90
14103;DHT22;7129;48.832;12.472;2022-10-31T16:51:41;12.80;99.90
14103;DHT22;7129;48.832;12.472;2022-10-31T16:56:44;12.60;99.90
14103;DHT22;7129;48.832;12.472;2022-10-31T17:01:48;12.60;99.90
14103;DHT22;7129;48.832;12.472;2022-10-31T17:06:50;12.50;99.90
14103;DHT22;7129;48.832;12.472;2022-10-31T17:11:53;12.40;99.90
14103;DHT22;7129;48.832;12.472;2022-10-31T17:16:56;12.30;99.90
14103;DHT22;7129;48.832;12.472;2022-10-31T17:21:58;12.20;99.90
14103;DHT22;7129;48.832;12.472;2022-10-31T17:27:00;12.20;99.90
14103;DHT22;7129;48.832;12.472;2022-10-31T17:32:03;12.20;99.90
14103;DHT22;7129;48.832;12.472;2022-10-31T17:37:05;12.20;99.90
14103;DHT22;7129;48.832;12.472;2022-10-31T17:42:07;12.20;99.90
14103;DHT22;7129;48.832;12.472;2022-10-31T17:47:10;12.10;99.90
14103;DHT22;7129;48.832;12.472;2022-10-31T17:52:12;12.10;99.90
14103;DHT22;7129;48.832;12.472;2022-10-31T18:03:25;12.20;99.90
14103;DHT22;7129;48.832;12.472;2022-10-31T18:08:29;12.10;99.90
14103;DHT22;7129;48.832;12.472;2022-10-31T18:13:31;12.00;99.90
14103;DHT22;7129;48.832;12.472;2022-10-31T18:18:35;12.00;99.90
14103;DHT22;7129;48.832;12.472;2022-10-31T18:23:36;11.90;99.90
14103;DHT22;7129;48.832;12.472;2022-10-31T18:28:39;11.80;99.90
14103;DHT22;7129;48.832;12.472;2022-10-31T18:33:42;11.80;99.90
14103;DHT22;7129;48.832;12.472;2022-10-31T18:38:44;11.70;99.90
14103;DHT22;7129;48.832;12.472;2022-10-31T18:43:46;11.70;99.90
14103;DHT22;7129;48.832;12.472;2022-10-31T18:48:49;11.60;99.90
14103;DHT22;7129;48.832;12.472;2022-10-31T18:53:52;11.50;99.90
14103;DHT22;7129;48.832;12.472;2022-10-31T18:58:54;11.40;99.90
14103;DHT22;7129;48.832;12.472;2022-10-31T19:03:58;11.30;99.90
14103;DHT22;7129;48.832;12.472;2022-10-31T19:09:03;11.20;99.90
14103;DHT22;7129;48.832;12.472;2022-10-31T19:14:09;11.20;99.90
14103;DHT22;7129;48.832;12.472;2022-10-31T19:19:14;11.00;99.90
14103;DHT22;7129;48.832;12.472;2022-10-31T19:24:16;10.90;99.90
14103;DHT22;7129;48.832;12.472;2022-10-31T19:29:18;10.80;99.90
14103;DHT22;7129;48.832;12.472;2022-10-31T19:34:21;10.70;99.90
14103;DHT22;7129;48.832;12.472;2022-10-31T19:39:23;10.60;99.90
14103;DHT22;7129;48.832;12.472;2022-10-31T19:44:25;10.60;99.90
14103;DHT22;7129;48.832;12.472;2022-10-31T19:49:30;10.70;99.90
14103;DHT22;7129;48.832;12.472;2022-10-31T19:54:33;10.70;99.90
14103;DHT22;7129;48.832;12.472;2022-10-31T19:59:34;10.60;99.90
14103;DHT22;7129;48.832;12.472;2022-10-31T20:04:38;10.70;99.90
14103;DHT22;7129;48.832;12.472;2022-10-31T20:09:39;10.60;99.90
14103;DHT22;7129;48.832;12.472;2022-10-31T20:14:41;10.70;99.90
14103;DHT22;7129;48.832;12.472;2022-10-31T20:19:44;10.60;99.90
14103;DHT22;7129;48.832;12.472;2022-10-31T20:24:46;11.00;99.90
14103;DHT22;7129;48.832;12.472;2022-10-31T20:29:49;10.80;99.90
14103;DHT22;7129;48.832;12.472;2022-10-31T20:34:52;10.80;99.90
14103;DHT22;7129;48.832;12.472;2022-10-31T20:39:54;10.80;99.90
14103;DHT22;7129;48.832;12.472;2022-10-31T20:44:56;10.70;99.90
14103;DHT22;7129;48.832;12.472;2022-10-31T20:49:59;10.90;99.90
14103;DHT22;7129;48.832;12.472;2022-10-31T20:55:01;10.90;99.90
14103;DHT22;7129;48.832;12.472;2022-10-31T21:00:04;10.90;99.90
14103;DHT22;7129;48.832;12.472;2022-10-31T21:05:08;10.90;99.90
14103;DHT22;7129;48.832;12.472;2022-10-31T21:10:10;10.80;99.90
14103;DHT22;7129;48.832;12.472;2022-10-31T21:15:15;10.90;99.90
14103;DHT22;7129;48.832;12.472;2022-10-31T21:20:18;10.90;99.90
14103;DHT22;7129;48.832;12.472;2022-10-31T21:25:20;10.90;99.90
14103;DHT22;7129;48.832;12.472;2022-10-31T21:30:22;10.90;99.90
14103;DHT22;7129;48.832;12.472;2022-10-31T21:35:26;10.90;99.90
14103;DHT22;7129;48.832;12.472;2022-10-31T21:40:27;10.80;99.90
14103;DHT22;7129;48.832;12.472;2022-10-31T21:45:29;11.00;99.90
14103;DHT22;7129;48.832;12.472;2022-10-31T21:50:33;10.90;99.90
14103;DHT22;7129;48.832;12.472;2022-10-31T21:55:35;10.80;99.90
14103;DHT22;7129;48.832;12.472;2022-10-31T22:00:37;10.80;99.90
14103;DHT22;7129;48.832;12.472;2022-10-31T22:05:40;10.70;99.90
14103;DHT22;7129;48.832;12.472;2022-10-31T22:10:42;10.60;99.90
14103;DHT22;7129;48.832;12.472;2022-10-31T22:15:44;10.90;99.90
14103;DHT22;7129;48.832;12.472;2022-10-31T22:20:47;10.70;99.90
14103;DHT22;7129;48.832;12.472;2022-10-31T22:25:49;10.80;99.90
14103;DHT22;7129;48.832;12.472;2022-10-31T22:30:50;10.80;99.90
14103;DHT22;7129;48.832;12.472;2022-10-31T22:35:54;10.80;99.90
14103;DHT22;7129;48.832;12.472;2022-10-31T22:40:56;10.70;99.90
14103;DHT22;7129;48.832;12.472;2022-10-31T22:46:00;10.80;99.90
14103;DHT22;7129;48.832;12.472;2022-10-31T22:51:05;10.70;99.90
14103;DHT22;7129;48.832;12.472;2022-10-31T22:56:10;10.60;99.90
14103;DHT22;7129;48.832;12.472;2022-10-31T23:01:13;10.60;99.90
14103;DHT22;7129;48.832;12.472;2022-10-31T23:06:18;10.60;99.90
14103;DHT22;7129;48.832;12.472;2022-10-31T23:11:22;10.60;99.90
14103;DHT22;7129;48.832;12.472;2022-10-31T23:16:24;10.60;99.90
14103;DHT22;7129;48.832;12.472;2022-10-31T23:21:28;10.50;99.90
14103;DHT22;7129;48.832;12.472;2022-10-31T23:26:56;10.50;99.90
14103;DHT22;7129;48.832;12.472;2022-10-31T23:32:16;10.50;99.90
14103;DHT22;7129;48.832;12.472;2022-10-31T23:37:22;10.30;99.90
14103;DHT22;7129;48.832;12.472;2022-10-31T23:42:25;10.40;99.90
14103;DHT22;7129;48.832;12.472;2022-10-31T23:47:27;10.40;99.90
14103;DHT22;7129;48.832;12.472;2022-10-31T23:52:30;10.40;99.90
14103;DHT22;7129;48.832;12.472;2022-10-31T23:57:32;10.20;99.90
